createdAt,value
2018-04-11T00:02:29.006Z,99229
2018-04-11T00:07:30.573Z,99235
2018-04-11T00:12:32.888Z,99219
2018-04-11T00:17:34.452Z,99225
2018-04-11T00:22:36.284Z,99226
2018-04-11T00:27:37.834Z,99220
2018-04-11T00:32:39.385Z,99218
2018-04-11T00:37:41.202Z,99218
2018-04-11T00:42:43.491Z,99221
2018-04-11T00:47:45.768Z,99226
2018-04-11T00:53:06.548Z,99209
2018-04-11T00:58:08.060Z,99215
2018-04-11T01:03:10.351Z,99210
2018-04-11T01:08:12.647Z,99199
2018-04-11T01:13:14.896Z,99197
2018-04-11T01:18:16.444Z,99202
2018-04-11T01:23:17.991Z,99195
2018-04-11T01:28:19.736Z,99200
2018-04-11T01:33:21.259Z,99195
2018-04-11T01:38:22.756Z,99181
2018-04-11T01:43:25.037Z,99176
2018-04-11T01:48:27.321Z,99182
2018-04-11T01:53:29.600Z,99183
2018-04-11T01:58:31.892Z,99184
2018-04-11T02:03:34.248Z,99190
2018-04-11T02:08:35.797Z,99186
2018-04-11T02:13:37.413Z,99192
2018-04-11T02:18:39.723Z,99195
2018-04-11T02:23:41.294Z,99198
2018-04-11T02:28:42.753Z,99202
2018-04-11T02:33:44.359Z,99211
2018-04-11T02:38:45.928Z,99203
2018-04-11T02:43:47.449Z,99218
2018-04-11T02:48:49.740Z,99216
2018-04-11T02:53:51.270Z,99219
2018-04-11T02:58:52.815Z,99224
2018-04-11T03:03:54.404Z,99225
2018-04-11T03:08:55.983Z,99235
2018-04-11T03:13:57.517Z,99248
2018-04-11T03:18:59.073Z,99247
2018-04-11T03:24:00.603Z,99240
2018-04-11T03:29:02.934Z,99247
2018-04-11T03:34:04.459Z,99241
2018-04-11T03:39:06.821Z,99239
2018-04-11T03:44:08.359Z,99243
2018-04-11T03:49:09.910Z,99236
2018-04-11T03:54:11.492Z,99237
2018-04-11T03:59:13.174Z,99236
2018-04-11T04:04:14.729Z,99231
2018-04-11T04:09:16.298Z,99239
2018-04-11T04:30:29.211Z,99224
2018-04-11T04:35:30.868Z,99229
2018-04-11T04:40:33.134Z,99241
2018-04-11T04:45:34.759Z,99241
2018-04-11T04:50:36.265Z,99241
2018-04-11T04:55:37.778Z,99238
2018-04-11T05:00:39.312Z,99248
2018-04-11T05:05:40.899Z,99251
2018-04-11T05:10:43.172Z,99249
2018-04-11T05:15:45.432Z,99240
2018-04-11T05:20:46.964Z,99245
2018-04-11T05:25:48.511Z,99244
2018-04-11T05:30:50.750Z,99260
2018-04-11T05:35:52.305Z,99264
2018-04-11T05:40:53.852Z,99261
2018-04-11T05:45:55.417Z,99272
2018-04-11T05:50:56.944Z,99270
2018-04-11T05:55:58.464Z,99278
2018-04-11T06:01:00.027Z,99279
2018-04-11T06:06:01.635Z,99285
2018-04-11T06:11:03.179Z,99292
2018-04-11T06:16:04.742Z,99291
2018-04-11T06:21:06.256Z,99291
2018-04-11T06:26:07.879Z,99289
2018-04-11T06:31:09.455Z,99288
2018-04-11T06:36:10.983Z,99306
2018-04-11T06:41:12.560Z,99312
2018-04-11T06:46:14.089Z,99312
2018-04-11T06:51:22.820Z,99313
2018-04-11T06:56:24.391Z,99319
2018-04-11T07:01:25.974Z,99309
2018-04-11T07:06:28.391Z,99296
2018-04-11T07:11:30.005Z,99298
2018-04-11T07:16:31.509Z,99297
2018-04-11T07:21:33.844Z,99289
2018-04-11T07:26:35.440Z,99306
2018-04-11T07:31:36.964Z,99308
2018-04-11T07:36:38.568Z,99309
2018-04-11T07:41:40.112Z,99309
2018-04-11T07:46:41.711Z,99312
2018-04-11T07:51:43.219Z,99318
2018-04-11T07:56:44.742Z,99315
2018-04-11T08:01:46.299Z,99311
2018-04-11T08:06:47.896Z,99319
2018-04-11T08:11:49.461Z,99319
2018-04-11T08:16:50.998Z,99319
2018-04-11T08:21:52.622Z,99334
2018-04-11T08:26:54.904Z,99329
2018-04-11T08:31:58.121Z,99332
2018-04-11T08:36:59.731Z,99341
2018-04-11T08:42:01.328Z,99351
2018-04-11T08:47:02.842Z,99355
2018-04-11T08:52:04.432Z,99369
2018-04-11T08:57:06.002Z,99359
2018-04-11T09:02:07.530Z,99368
2018-04-11T09:07:09.077Z,99376
2018-04-11T09:12:10.735Z,99370
2018-04-11T09:17:12.273Z,99372
2018-04-11T09:22:13.876Z,99372
2018-04-11T09:27:15.431Z,99371
2018-04-11T09:32:17.067Z,99367
2018-04-11T09:37:18.598Z,99364
2018-04-11T09:42:20.884Z,99369
2018-04-11T09:47:23.154Z,99363
2018-04-11T09:52:24.692Z,99354
2018-04-11T09:57:26.202Z,99345
2018-04-11T10:02:28.515Z,99353
2018-04-11T10:07:29.998Z,99351
2018-04-11T10:12:31.523Z,99338
2018-04-11T10:17:33.836Z,99335
2018-04-11T10:22:35.404Z,99328
2018-04-11T10:27:36.900Z,99317
2018-04-11T10:32:38.411Z,99318
2018-04-11T10:37:40.705Z,99310
2018-04-11T10:42:43.121Z,99314
2018-04-11T10:47:44.715Z,99320
2018-04-11T10:52:46.253Z,99310
2018-04-11T10:57:47.761Z,99321
2018-04-11T11:02:49.350Z,99304
2018-04-11T11:07:50.871Z,99311
2018-04-11T11:12:52.437Z,99289
2018-04-11T11:17:54.019Z,99282
2018-04-11T11:22:55.611Z,99284
2018-04-11T11:27:57.031Z,99285
2018-04-11T11:32:58.588Z,99278
2018-04-11T11:38:00.140Z,99280
2018-04-11T11:43:02.427Z,99276
2018-04-11T11:48:04.744Z,99278
2018-04-11T11:53:06.285Z,99269
2018-04-11T11:58:08.496Z,99272
2018-04-11T12:03:09.976Z,99249
2018-04-11T12:08:11.580Z,99251
2018-04-11T12:13:13.107Z,99241
2018-04-11T12:18:14.743Z,99235
2018-04-11T12:23:17.045Z,99234
2018-04-11T12:28:18.561Z,99239
2018-04-11T12:33:20.132Z,99230
2018-04-11T12:38:21.732Z,99238
2018-04-11T12:43:24.084Z,99232
2018-04-11T12:48:25.729Z,99226
2018-04-11T12:53:27.264Z,99225
2018-04-11T12:58:28.786Z,99232
2018-04-11T13:03:30.400Z,99215
2018-04-11T13:08:32.070Z,99204
2018-04-11T13:13:33.569Z,99199
2018-04-11T13:18:35.140Z,99193
2018-04-11T13:23:36.739Z,99180
2018-04-11T13:28:38.240Z,99179
2018-04-11T13:33:40.508Z,99169
2018-04-11T13:38:42.799Z,99165
2018-04-11T13:43:45.284Z,99158
2018-04-11T13:48:47.626Z,99156
2018-04-11T13:53:49.175Z,99159
2018-04-11T13:58:50.715Z,99161
2018-04-11T14:03:52.992Z,99162
2018-04-11T14:08:55.302Z,99152
2018-04-11T14:13:56.778Z,99146
2018-04-11T14:18:58.350Z,99146
2018-04-11T14:24:06.822Z,99145
2018-04-11T14:29:08.362Z,99145
2018-04-11T14:34:09.957Z,99141
2018-04-11T14:39:11.480Z,99136
2018-04-11T14:44:13.052Z,99139
2018-04-11T14:49:14.724Z,99124
2018-04-11T14:54:16.479Z,99121
2018-04-11T14:59:18.061Z,99120
2018-04-11T15:04:19.610Z,99122
2018-04-11T15:09:21.920Z,99121
2018-04-11T15:14:23.407Z,99130
2018-04-11T15:19:24.982Z,99121
2018-04-11T15:24:26.587Z,99119
2018-04-11T15:29:28.997Z,99114
2018-04-11T15:34:30.638Z,99110
2018-04-11T15:39:32.190Z,99113
2018-04-11T15:44:33.715Z,99089
2018-04-11T15:49:35.271Z,99090
2018-04-11T15:54:36.804Z,99090
2018-04-11T15:59:38.370Z,99073
2018-04-11T16:04:39.892Z,99084
2018-04-11T16:09:41.491Z,99074
2018-04-11T16:14:43.024Z,99071
2018-04-11T16:19:44.588Z,99070
2018-04-11T16:24:46.180Z,99072
2018-04-11T16:29:47.677Z,99062
2018-04-11T16:34:49.231Z,99053
2018-04-11T16:39:50.903Z,99053
2018-04-11T16:44:52.396Z,99058
2018-04-11T16:49:53.932Z,99032
2018-04-11T16:55:02.332Z,99040
2018-04-11T17:00:03.874Z,99032
2018-04-11T17:05:06.137Z,99028
2018-04-11T17:10:07.765Z,99028
2018-04-11T17:15:09.493Z,99025
2018-04-11T17:20:11.734Z,99021
2018-04-11T17:25:31.508Z,99026
2018-04-11T17:30:51.558Z,99027
2018-04-11T17:35:53.109Z,99023
2018-04-11T17:40:54.787Z,99031
2018-04-11T17:45:56.276Z,99018
2018-04-11T17:50:57.845Z,99014
2018-04-11T17:55:59.507Z,99029
2018-04-11T18:01:01.109Z,99018
2018-04-11T18:06:02.676Z,99025
2018-04-11T18:11:04.998Z,99028
2018-04-11T18:16:06.621Z,99030
2018-04-11T18:21:09.003Z,99032
2018-04-11T18:26:11.232Z,99034
2018-04-11T18:31:12.752Z,99032
2018-04-11T18:36:14.990Z,99029
2018-04-11T18:41:16.533Z,99036
2018-04-11T18:46:18.099Z,99029
2018-04-11T18:51:19.601Z,99034
2018-04-11T18:56:21.078Z,99035
2018-04-11T19:01:22.578Z,99031
2018-04-11T19:06:24.917Z,99036
2018-04-11T19:11:26.441Z,99019
2018-04-11T19:16:28.671Z,99019
2018-04-11T19:21:30.263Z,99014
2018-04-11T19:26:31.840Z,99006
2018-04-11T19:31:33.410Z,99008
2018-04-11T19:36:35.056Z,99001
2018-04-11T19:41:36.607Z,99000
2018-04-11T19:46:38.141Z,98984
2018-04-11T19:51:40.615Z,98983
2018-04-11T19:56:42.841Z,98976
2018-04-11T20:01:44.556Z,98974
2018-04-11T20:06:46.285Z,98978
2018-04-11T20:11:47.811Z,98973
2018-04-11T20:16:50.058Z,98974
2018-04-11T20:21:51.616Z,98966
2018-04-11T20:26:53.960Z,98960
2018-04-11T20:31:56.255Z,98969
2018-04-11T20:36:57.748Z,98957
2018-04-11T20:41:59.248Z,98964
2018-04-11T20:47:00.707Z,98958
2018-04-11T20:52:02.215Z,98941
2018-04-11T20:57:04.485Z,98937
2018-04-11T21:02:06.901Z,98941
2018-04-11T21:07:08.525Z,98931
2018-04-11T21:12:10.104Z,98921
2018-04-11T21:17:12.588Z,98916
2018-04-11T21:22:14.114Z,98917
2018-04-11T21:27:15.645Z,98907
2018-04-11T21:32:18.037Z,98912
2018-04-11T21:37:20.356Z,98909
2018-04-11T21:42:21.937Z,98891
2018-04-11T21:47:23.540Z,98900
2018-04-11T21:52:25.092Z,98888
2018-04-11T21:57:26.702Z,98901
2018-04-11T22:02:28.991Z,98895
2018-04-11T22:07:30.531Z,98882
2018-04-11T22:12:32.104Z,98883
2018-04-11T22:17:33.655Z,98866
2018-04-11T22:22:35.163Z,98854
2018-04-11T22:27:36.780Z,98854
2018-04-11T22:32:38.317Z,98847
2018-04-11T22:37:39.905Z,98838
2018-04-11T22:42:41.432Z,98831
2018-04-11T22:47:43.736Z,98820
2018-04-11T22:52:45.297Z,98816
2018-04-11T22:57:46.827Z,98808
2018-04-11T23:02:48.325Z,98806
2018-04-11T23:07:50.600Z,98792
2018-04-11T23:12:53.069Z,98795
2018-04-11T23:17:54.607Z,98792
2018-04-11T23:22:56.179Z,98776
2018-04-11T23:27:57.721Z,98775
2018-04-11T23:32:59.261Z,98772
2018-04-11T23:38:01.559Z,98759
2018-04-11T23:43:03.097Z,98750
2018-04-11T23:48:04.636Z,98742
2018-04-11T23:53:06.222Z,98741
2018-04-11T23:58:07.745Z,98734
